sensor_id;sensor_type;location;lat;lon;timestamp;pressure;altitude;pressure_sealevel;temperature;humidity
16030;BME280;34770;49.272;11.070;2022-11-11T00:01:10;99151.06;;;2.15;100.00
16030;BME280;34770;49.272;11.070;2022-11-11T00:03:37;99211.34;;;2.42;100.00
16030;BME280;34770;49.272;11.070;2022-11-11T00:06:05;99144.63;;;1.99;100.00
16030;BME280;34770;49.272;11.070;2022-11-11T00:08:31;99187.94;;;2.29;100.00
16030;BME280;34770;49.272;11.070;2022-11-11T00:11:05;99139.78;;;2.11;100.00
16030;BME280;34770;49.272;11.070;2022-11-11T00:13:31;99139.22;;;2.14;100.00
16030;BME280;34770;49.272;11.070;2022-11-11T00:16:27;99134.88;;;2.18;100.00
16030;BME280;34770;49.272;11.070;2022-11-11T00:19:12;99141.75;;;2.21;100.00
16030;BME280;34770;49.272;11.070;2022-11-11T00:21:57;99194.94;;;2.52;100.00
16030;BME280;34770;49.272;11.070;2022-11-11T00:24:41;99257.50;;;2.93;100.00
16030;BME280;34770;49.272;11.070;2022-11-11T00:27:25;99125.34;;;1.83;100.00
16030;BME280;34770;49.272;11.070;2022-11-11T00:29:51;99189.88;;;2.34;100.00
16030;BME280;34770;49.272;11.070;2022-11-11T00:32:18;99255.75;;;2.71;100.00
16030;BME280;34770;49.272;11.070;2022-11-11T00:34:57;99128.91;;;1.84;100.00
16030;BME280;34770;49.272;11.070;2022-11-11T00:37:43;99132.75;;;1.88;100.00
16030;BME280;34770;49.272;11.070;2022-11-11T00:40:10;99244.94;;;2.49;100.00
16030;BME280;34770;49.272;11.070;2022-11-11T00:42:36;99236.97;;;2.48;100.00
16030;BME280;34770;49.272;11.070;2022-11-11T00:45:02;99239.72;;;2.48;100.00
16030;BME280;34770;49.272;11.070;2022-11-11T00:47:27;99228.09;;;2.35;100.00
16030;BME280;34770;49.272;11.070;2022-11-11T00:50:23;99241.28;;;2.33;100.00
16030;BME280;34770;49.272;11.070;2022-11-11T00:53:10;99236.88;;;2.37;100.00
16030;BME280;34770;49.272;11.070;2022-11-11T00:55:36;99241.56;;;2.37;100.00
16030;BME280;34770;49.272;11.070;2022-11-11T00:58:01;99201.50;;;2.03;100.00
16030;BME280;34770;49.272;11.070;2022-11-11T01:00:26;99222.22;;;2.21;100.00
16030;BME280;34770;49.272;11.070;2022-11-11T01:02:52;99228.88;;;2.26;100.00
16030;BME280;34770;49.272;11.070;2022-11-11T01:05:17;99235.25;;;2.36;100.00
16030;BME280;34770;49.272;11.070;2022-11-11T01:07:43;99236.06;;;2.37;100.00
16030;BME280;34770;49.272;11.070;2022-11-11T01:10:08;99226.47;;;2.39;100.00
16030;BME280;34770;49.272;11.070;2022-11-11T01:12:34;99237.47;;;2.45;100.00
16030;BME280;34770;49.272;11.070;2022-11-11T01:14:59;99242.69;;;2.41;100.00
16030;BME280;34770;49.272;11.070;2022-11-11T01:17:25;99236.94;;;2.43;100.00
16030;BME280;34770;49.272;11.070;2022-11-11T01:19:50;99239.69;;;2.43;100.00
16030;BME280;34770;49.272;11.070;2022-11-11T01:22:15;99235.28;;;2.42;100.00
16030;BME280;34770;49.272;11.070;2022-11-11T01:24:41;99239.44;;;2.54;100.00
16030;BME280;34770;49.272;11.070;2022-11-11T01:27:06;99248.81;;;2.53;100.00
16030;BME280;34770;49.272;11.070;2022-11-11T01:29:31;99257.00;;;2.48;100.00
16030;BME280;34770;49.272;11.070;2022-11-11T01:31:57;99264.63;;;2.36;100.00
16030;BME280;34770;49.272;11.070;2022-11-11T01:34:22;99257.19;;;2.31;100.00
16030;BME280;34770;49.272;11.070;2022-11-11T01:36:48;99269.63;;;2.39;100.00
16030;BME280;34770;49.272;11.070;2022-11-11T01:39:13;99263.25;;;2.33;100.00
16030;BME280;34770;49.272;11.070;2022-11-11T01:41:38;99262.75;;;2.36;100.00
16030;BME280;34770;49.272;11.070;2022-11-11T01:46:40;99259.16;;;2.41;100.00
16030;BME280;34770;49.272;11.070;2022-11-11T01:54:35;99261.59;;;2.32;100.00
16030;BME280;34770;49.272;11.070;2022-11-11T01:57:21;99259.41;;;2.29;100.00
16030;BME280;34770;49.272;11.070;2022-11-11T01:59:52;99251.06;;;2.19;100.00
16030;BME280;34770;49.272;11.070;2022-11-11T02:02:33;99272.00;;;2.30;100.00
16030;BME280;34770;49.272;11.070;2022-11-11T02:05:02;99279.16;;;2.31;100.00
16030;BME280;34770;49.272;11.070;2022-11-11T02:07:47;99239.44;;;2.06;100.00
16030;BME280;34770;49.272;11.070;2022-11-11T02:10:13;99268.66;;;2.23;100.00
16030;BME280;34770;49.272;11.070;2022-11-11T02:12:39;99253.50;;;2.10;100.00
16030;BME280;34770;49.272;11.070;2022-11-11T02:15:23;99254.88;;;2.13;100.00
16030;BME280;34770;49.272;11.070;2022-11-11T02:17:49;99253.69;;;2.03;100.00
16030;BME280;34770;49.272;11.070;2022-11-11T02:20:18;99263.91;;;2.08;100.00
16030;BME280;34770;49.272;11.070;2022-11-11T02:22:48;99263.91;;;2.08;100.00
16030;BME280;34770;49.272;11.070;2022-11-11T02:25:18;99262.81;;;2.09;100.00
16030;BME280;34770;49.272;11.070;2022-11-11T02:27:48;99266.13;;;2.11;100.00
16030;BME280;34770;49.272;11.070;2022-11-11T02:30:15;99261.16;;;2.08;100.00
16030;BME280;34770;49.272;11.070;2022-11-11T02:32:43;99265.25;;;2.05;100.00
16030;BME280;34770;49.272;11.070;2022-11-11T02:35:30;99262.13;;;1.91;100.00
16030;BME280;34770;49.272;11.070;2022-11-11T02:37:56;99250.81;;;1.88;100.00
16030;BME280;34770;49.272;11.070;2022-11-11T02:42:55;99249.44;;;1.85;100.00
16030;BME280;34770;49.272;11.070;2022-11-11T02:45:21;99248.34;;;1.86;100.00
16030;BME280;34770;49.272;11.070;2022-11-11T02:47:47;99263.25;;;1.96;100.00
16030;BME280;34770;49.272;11.070;2022-11-11T02:50:12;99257.63;;;1.80;100.00
16030;BME280;34770;49.272;11.070;2022-11-11T02:52:37;99259.28;;;1.81;100.00
16030;BME280;34770;49.272;11.070;2022-11-11T02:55:03;99255.97;;;1.79;100.00
16030;BME280;34770;49.272;11.070;2022-11-11T02:57:29;99249.75;;;1.89;100.00
16030;BME280;34770;49.272;11.070;2022-11-11T02:59:57;99259.66;;;1.95;100.00
16030;BME280;34770;49.272;11.070;2022-11-11T03:02:23;99247.06;;;1.94;100.00
16030;BME280;34770;49.272;11.070;2022-11-11T03:04:52;99246.38;;;1.82;100.00
16030;BME280;34770;49.272;11.070;2022-11-11T03:07:17;99262.31;;;1.80;100.00
16030;BME280;34770;49.272;11.070;2022-11-11T03:09:43;99260.13;;;1.82;100.00
16030;BME280;34770;49.272;11.070;2022-11-11T03:12:08;99255.38;;;1.72;100.00
16030;BME280;34770;49.272;11.070;2022-11-11T03:14:33;99263.09;;;1.75;100.00
16030;BME280;34770;49.272;11.070;2022-11-11T03:16:58;99269.97;;;1.78;100.00
16030;BME280;34770;49.272;11.070;2022-11-11T03:19:42;99265.88;;;1.80;100.00
16030;BME280;34770;49.272;11.070;2022-11-11T03:22:08;99276.97;;;1.90;100.00
16030;BME280;34770;49.272;11.070;2022-11-11T03:24:33;99254.25;;;1.68;100.00
16030;BME280;34770;49.272;11.070;2022-11-11T03:27:17;99267.53;;;1.81;100.00
16030;BME280;34770;49.272;11.070;2022-11-11T03:29:42;99266.44;;;1.82;100.00
16030;BME280;34770;49.272;11.070;2022-11-11T03:32:08;99274.69;;;1.82;100.00
16030;BME280;34770;49.272;11.070;2022-11-11T03:34:34;99270.97;;;1.66;100.00
16030;BME280;34770;49.272;11.070;2022-11-11T03:36:59;99298.84;;;1.53;100.00
16030;BME280;34770;49.272;11.070;2022-11-11T03:39:43;99278.28;;;1.28;100.00
16030;BME280;34770;49.272;11.070;2022-11-11T03:42:09;99291.25;;;1.38;100.00
16030;BME280;34770;49.272;11.070;2022-11-11T03:44:34;99308.63;;;1.43;100.00
16030;BME280;34770;49.272;11.070;2022-11-11T03:46:59;99306.19;;;1.47;100.00
16030;BME280;34770;49.272;11.070;2022-11-11T03:49:25;99290.53;;;1.48;100.00
16030;BME280;34770;49.272;11.070;2022-11-11T03:51:50;99302.09;;;1.50;100.00
16030;BME280;34770;49.272;11.070;2022-11-11T03:54:15;99288.34;;;1.45;100.00
16030;BME280;34770;49.272;11.070;2022-11-11T03:56:41;99291.94;;;1.50;100.00
16030;BME280;34770;49.272;11.070;2022-11-11T03:59:06;99292.75;;;1.46;100.00
16030;BME280;34770;49.272;11.070;2022-11-11T04:01:31;99287.47;;;1.44;100.00
16030;BME280;34770;49.272;11.070;2022-11-11T04:04:15;99282.78;;;1.39;100.00
16030;BME280;34770;49.272;11.070;2022-11-11T04:06:59;99283.31;;;1.36;100.00
16030;BME280;34770;49.272;11.070;2022-11-11T04:09:43;99294.31;;;1.41;100.00
16030;BME280;34770;49.272;11.070;2022-11-11T04:12:28;99283.56;;;1.35;100.00
16030;BME280;34770;49.272;11.070;2022-11-11T04:14:54;99293.75;;;1.39;100.00
16030;BME280;34770;49.272;11.070;2022-11-11T04:17:38;99265.00;;;1.20;100.00
16030;BME280;34770;49.272;11.070;2022-11-11T04:20:03;99271.53;;;1.14;100.00
16030;BME280;34770;49.272;11.070;2022-11-11T04:22:47;99292.56;;;1.08;100.00
16030;BME280;34770;49.272;11.070;2022-11-11T04:25:13;99301.75;;;1.19;100.00
16030;BME280;34770;49.272;11.070;2022-11-11T04:27:57;99297.81;;;1.09;100.00
16030;BME280;34770;49.272;11.070;2022-11-11T04:30:41;99278.00;;;1.02;100.00
16030;BME280;34770;49.272;11.070;2022-11-11T04:33:07;99290.34;;;1.05;100.00
16030;BME280;34770;49.272;11.070;2022-11-11T04:35:33;99292.72;;;0.96;100.00
16030;BME280;34770;49.272;11.070;2022-11-11T04:37:58;99279.91;;;0.79;100.00
16030;BME280;34770;49.272;11.070;2022-11-11T04:40:42;99294.25;;;0.87;100.00
16030;BME280;34770;49.272;11.070;2022-11-11T04:43:26;99282.00;;;0.72;100.00
16030;BME280;34770;49.272;11.070;2022-11-11T04:45:51;99292.63;;;0.91;100.00
16030;BME280;34770;49.272;11.070;2022-11-11T04:48:17;99298.22;;;0.96;100.00
16030;BME280;34770;49.272;11.070;2022-11-11T04:50:43;99308.25;;;1.13;100.00
16030;BME280;34770;49.272;11.070;2022-11-11T04:53:11;99308.91;;;1.20;100.00
16030;BME280;34770;49.272;11.070;2022-11-11T04:55:41;99325.88;;;1.17;100.00
16030;BME280;34770;49.272;11.070;2022-11-11T04:58:30;99328.03;;;1.15;100.00
16030;BME280;34770;49.272;11.070;2022-11-11T05:00:56;99319.22;;;1.13;100.00
16030;BME280;34770;49.272;11.070;2022-11-11T05:03:21;99294.06;;;0.93;100.00
16030;BME280;34770;49.272;11.070;2022-11-11T05:08:37;99336.34;;;0.98;100.00
16030;BME280;34770;49.272;11.070;2022-11-11T05:13:52;99340.63;;;1.10;100.00
16030;BME280;34770;49.272;11.070;2022-11-11T05:16:43;99333.03;;;1.18;100.00
16030;BME280;34770;49.272;11.070;2022-11-11T05:19:27;99322.69;;;1.03;100.00
16030;BME280;34770;49.272;11.070;2022-11-11T05:22:31;99328.03;;;1.15;100.00
16030;BME280;34770;49.272;11.070;2022-11-11T05:24:57;99321.34;;;1.05;100.00
16030;BME280;34770;49.272;11.070;2022-11-11T05:27:42;99341.44;;;1.11;100.00
16030;BME280;34770;49.272;11.070;2022-11-11T05:30:09;99347.75;;;1.11;100.00
16030;BME280;34770;49.272;11.070;2022-11-11T05:32:36;99342.84;;;1.14;100.00
16030;BME280;34770;49.272;11.070;2022-11-11T05:35:02;99343.38;;;1.10;100.00
16030;BME280;34770;49.272;11.070;2022-11-11T05:37:28;99339.19;;;1.08;100.00
16030;BME280;34770;49.272;11.070;2022-11-11T05:39:53;99337.28;;;1.08;100.00
16030;BME280;34770;49.272;11.070;2022-11-11T05:42:19;99328.38;;;0.96;100.00
16030;BME280;34770;49.272;11.070;2022-11-11T05:44:44;99354.97;;;1.18;100.00
16030;BME280;34770;49.272;11.070;2022-11-11T05:47:10;99343.84;;;1.07;100.00
16030;BME280;34770;49.272;11.070;2022-11-11T05:49:35;99357.13;;;1.16;100.00
16030;BME280;34770;49.272;11.070;2022-11-11T05:52:01;99367.53;;;1.14;100.00
16030;BME280;34770;49.272;11.070;2022-11-11T05:54:26;99371.44;;;1.18;100.00
16030;BME280;34770;49.272;11.070;2022-11-11T05:56:52;99377.41;;;1.15;100.00
16030;BME280;34770;49.272;11.070;2022-11-11T05:59:17;99377.78;;;1.01;100.00
16030;BME280;34770;49.272;11.070;2022-11-11T06:01:43;99379.72;;;1.01;100.00
16030;BME280;34770;49.272;11.070;2022-11-11T06:04:09;99395.25;;;0.95;100.00
16030;BME280;34770;49.272;11.070;2022-11-11T06:06:35;99391.75;;;1.00;100.00
16030;BME280;34770;49.272;11.070;2022-11-11T06:09:01;99376.00;;;0.90;100.00
16030;BME280;34770;49.272;11.070;2022-11-11T06:11:27;99382.03;;;0.92;100.00
16030;BME280;34770;49.272;11.070;2022-11-11T06:13:53;99392.50;;;0.95;100.00
16030;BME280;34770;49.272;11.070;2022-11-11T06:16:19;99392.56;;;1.00;100.00
16030;BME280;34770;49.272;11.070;2022-11-11T06:18:45;99397.56;;;1.03;100.00
16030;BME280;34770;49.272;11.070;2022-11-11T06:21:10;99405.50;;;0.83;100.00
16030;BME280;34770;49.272;11.070;2022-11-11T06:23:36;99410.47;;;0.86;100.00
16030;BME280;34770;49.272;11.070;2022-11-11T06:26:01;99418.44;;;0.87;100.00
16030;BME280;34770;49.272;11.070;2022-11-11T06:31:15;99411.22;;;0.81;100.00
16030;BME280;34770;49.272;11.070;2022-11-11T06:33:41;99419.34;;;0.93;100.00
16030;BME280;34770;49.272;11.070;2022-11-11T06:36:07;99416.00;;;0.91;100.00
16030;BME280;34770;49.272;11.070;2022-11-11T06:38:32;99367.47;;;0.69;100.00
16030;BME280;34770;49.272;11.070;2022-11-11T06:40:58;99305.59;;;0.17;100.00
16030;BME280;34770;49.272;11.070;2022-11-11T06:43:24;99402.56;;;0.89;100.00
16030;BME280;34770;49.272;11.070;2022-11-11T06:45:51;99369.13;;;0.70;100.00
16030;BME280;34770;49.272;11.070;2022-11-11T06:48:17;99302.91;;;0.39;100.00
16030;BME280;34770;49.272;11.070;2022-11-11T06:50:43;99360.22;;;0.80;100.00
16030;BME280;34770;49.272;11.070;2022-11-11T06:53:11;99363.63;;;0.70;100.00
16030;BME280;34770;49.272;11.070;2022-11-11T06:55:38;99315.75;;;0.39;100.00
16030;BME280;34770;49.272;11.070;2022-11-11T06:58:08;99312.63;;;0.30;100.00
16030;BME280;34770;49.272;11.070;2022-11-11T07:00:35;99268.72;;;0.25;100.00
16030;BME280;34770;49.272;11.070;2022-11-11T07:03:02;99323.38;;;0.71;100.00
16030;BME280;34770;49.272;11.070;2022-11-11T07:05:29;99263.97;;;0.37;100.00
16030;BME280;34770;49.272;11.070;2022-11-11T07:07:56;99274.25;;;0.47;100.00
16030;BME280;34770;49.272;11.070;2022-11-11T07:10:22;99311.13;;;0.78;100.00
16030;BME280;34770;49.272;11.070;2022-11-11T07:12:48;99303.00;;;0.67;100.00
16030;BME280;34770;49.272;11.070;2022-11-11T07:15:14;99397.31;;;1.27;100.00
16030;BME280;34770;49.272;11.070;2022-11-11T07:17:40;99329.44;;;0.95;100.00
16030;BME280;34770;49.272;11.070;2022-11-11T07:25:11;99295.41;;;1.13;100.00
16030;BME280;34770;49.272;11.070;2022-11-11T07:27:39;99402.78;;;1.99;100.00
16030;BME280;34770;49.272;11.070;2022-11-11T07:30:06;99335.25;;;1.70;100.00
16030;BME280;34770;49.272;11.070;2022-11-11T07:32:33;99289.41;;;1.43;100.00
16030;BME280;34770;49.272;11.070;2022-11-11T07:35:01;99415.44;;;2.27;100.00
16030;BME280;34770;49.272;11.070;2022-11-11T07:37:29;99326.09;;;1.87;100.00
16030;BME280;34770;49.272;11.070;2022-11-11T07:39:57;99296.63;;;1.77;100.00
16030;BME280;34770;49.272;11.070;2022-11-11T07:42:25;99330.66;;;2.09;100.00
16030;BME280;34770;49.272;11.070;2022-11-11T07:44:53;99286.53;;;1.88;100.00
16030;BME280;34770;49.272;11.070;2022-11-11T07:47:21;99331.69;;;2.35;100.00
16030;BME280;34770;49.272;11.070;2022-11-11T07:49:47;99412.69;;;2.97;100.00
16030;BME280;34770;49.272;11.070;2022-11-11T07:52:13;99385.41;;;2.91;100.00
16030;BME280;34770;49.272;11.070;2022-11-11T07:54:39;99297.19;;;2.54;100.00
16030;BME280;34770;49.272;11.070;2022-11-11T07:57:05;99388.41;;;3.37;100.00
16030;BME280;34770;49.272;11.070;2022-11-11T07:59:31;99408.94;;;3.88;100.00
16030;BME280;34770;49.272;11.070;2022-11-11T08:01:56;99295.69;;;3.58;100.00
16030;BME280;34770;49.272;11.070;2022-11-11T08:04:23;99407.09;;;4.86;100.00
16030;BME280;34770;49.272;11.070;2022-11-11T08:06:51;99409.16;;;5.36;100.00
16030;BME280;34770;49.272;11.070;2022-11-11T08:09:17;99407.16;;;5.62;100.00
16030;BME280;34770;49.272;11.070;2022-11-11T08:11:43;99283.19;;;5.50;100.00
16030;BME280;34770;49.272;11.070;2022-11-11T08:14:28;99317.72;;;5.53;100.00
16030;BME280;34770;49.272;11.070;2022-11-11T08:16:53;99345.41;;;6.62;100.00
16030;BME280;34770;49.272;11.070;2022-11-11T08:19:19;99341.56;;;7.11;100.00
16030;BME280;34770;49.272;11.070;2022-11-11T08:21:45;99379.47;;;8.03;100.00
16030;BME280;34770;49.272;11.070;2022-11-11T08:24:11;99332.66;;;7.82;95.41
16030;BME280;34770;49.272;11.070;2022-11-11T08:26:38;99348.25;;;8.30;94.40
16030;BME280;34770;49.272;11.070;2022-11-11T08:29:05;99310.59;;;8.10;92.59
16030;BME280;34770;49.272;11.070;2022-11-11T08:31:31;99361.44;;;8.38;89.56
16030;BME280;34770;49.272;11.070;2022-11-11T08:34:01;99430.38;;;8.31;94.49
16030;BME280;34770;49.272;11.070;2022-11-11T08:36:27;99375.31;;;7.62;99.81
16030;BME280;34770;49.272;11.070;2022-11-11T08:38:56;99385.75;;;7.70;99.75
16030;BME280;34770;49.272;11.070;2022-11-11T08:41:29;99431.34;;;8.40;98.81
16030;BME280;34770;49.272;11.070;2022-11-11T08:43:57;99309.97;;;8.13;96.16
16030;BME280;34770;49.272;11.070;2022-11-11T08:46:25;99299.38;;;8.34;93.11
16030;BME280;34770;49.272;11.070;2022-11-11T08:48:51;99416.59;;;8.97;94.92
16030;BME280;34770;49.272;11.070;2022-11-11T08:51:17;99399.72;;;10.42;90.92
16030;BME280;34770;49.272;11.070;2022-11-11T08:53:43;99304.00;;;11.23;84.06
16030;BME280;34770;49.272;11.070;2022-11-11T08:56:09;99348.78;;;11.85;77.59
16030;BME280;34770;49.272;11.070;2022-11-11T08:58:39;99335.34;;;12.04;77.12
16030;BME280;34770;49.272;11.070;2022-11-11T09:01:10;99297.41;;;12.12;75.16
16030;BME280;34770;49.272;11.070;2022-11-11T09:03:37;99324.50;;;12.29;73.43
16030;BME280;34770;49.272;11.070;2022-11-11T09:06:03;99391.00;;;13.75;73.57
16030;BME280;34770;49.272;11.070;2022-11-11T09:08:29;99318.81;;;13.68;68.02
16030;BME280;34770;49.272;11.070;2022-11-11T09:10:57;99296.09;;;14.12;67.01
16030;BME280;34770;49.272;11.070;2022-11-11T09:13:23;99307.72;;;15.02;65.15
16030;BME280;34770;49.272;11.070;2022-11-11T09:15:48;99328.84;;;14.87;65.82
16030;BME280;34770;49.272;11.070;2022-11-11T09:18:14;99378.91;;;14.34;66.79
16030;BME280;34770;49.272;11.070;2022-11-11T09:20:40;99305.03;;;13.63;67.44
16030;BME280;34770;49.272;11.070;2022-11-11T09:23:07;99343.69;;;12.74;72.45
16030;BME280;34770;49.272;11.070;2022-11-11T09:25:32;99360.00;;;12.28;73.96
16030;BME280;34770;49.272;11.070;2022-11-11T09:27:59;99367.22;;;12.38;75.56
16030;BME280;34770;49.272;11.070;2022-11-11T09:30:27;99303.41;;;11.44;77.57
16030;BME280;34770;49.272;11.070;2022-11-11T09:32:53;99389.22;;;12.22;78.72
16030;BME280;34770;49.272;11.070;2022-11-11T09:35:18;99372.94;;;12.16;79.36
16030;BME280;34770;49.272;11.070;2022-11-11T09:37:55;99417.94;;;12.67;77.67
16030;BME280;34770;49.272;11.070;2022-11-11T09:40:23;99407.28;;;12.25;78.61
16030;BME280;34770;49.272;11.070;2022-11-11T09:43:09;99429.81;;;12.55;77.47
16030;BME280;34770;49.272;11.070;2022-11-11T09:51:22;99429.59;;;14.20;74.76
16030;BME280;34770;49.272;11.070;2022-11-11T09:53:53;99411.97;;;14.62;72.30
16030;BME280;34770;49.272;11.070;2022-11-11T09:56:25;99381.88;;;14.92;69.57
16030;BME280;34770;49.272;11.070;2022-11-11T10:01:35;99338.25;;;15.66;67.34
16030;BME280;34770;49.272;11.070;2022-11-11T10:06:34;99354.16;;;15.86;66.26
16030;BME280;34770;49.272;11.070;2022-11-11T10:09:21;99386.28;;;16.26;65.48
16030;BME280;34770;49.272;11.070;2022-11-11T10:14:36;99326.25;;;13.85;72.16
16030;BME280;34770;49.272;11.070;2022-11-11T10:20:17;99359.84;;;14.48;72.85
16030;BME280;34770;49.272;11.070;2022-11-11T10:22:45;99425.38;;;14.56;73.15
16030;BME280;34770;49.272;11.070;2022-11-11T10:25:19;99426.72;;;14.08;76.38
16030;BME280;34770;49.272;11.070;2022-11-11T10:27:47;99352.81;;;14.00;76.52
16030;BME280;34770;49.272;11.070;2022-11-11T10:30:22;99357.13;;;13.97;74.74
16030;BME280;34770;49.272;11.070;2022-11-11T10:33:05;99327.06;;;12.78;78.92
16030;BME280;34770;49.272;11.070;2022-11-11T10:35:38;99376.00;;;13.79;77.21
16030;BME280;34770;49.272;11.070;2022-11-11T10:40:44;99423.19;;;14.62;76.69
16030;BME280;34770;49.272;11.070;2022-11-11T10:43:26;99307.91;;;13.75;76.38
16030;BME280;34770;49.272;11.070;2022-11-11T10:46:18;99393.63;;;13.80;78.21
16030;BME280;34770;49.272;11.070;2022-11-11T10:49:04;99320.38;;;13.09;81.85
16030;BME280;34770;49.272;11.070;2022-11-11T10:51:41;99353.03;;;13.26;81.95
16030;BME280;34770;49.272;11.070;2022-11-11T10:54:16;99355.31;;;13.42;81.52
16030;BME280;34770;49.272;11.070;2022-11-11T10:56:52;99314.66;;;12.40;85.98
16030;BME280;34770;49.272;11.070;2022-11-11T10:59:23;99413.97;;;13.03;87.51
16030;BME280;34770;49.272;11.070;2022-11-11T11:01:59;99412.00;;;13.60;86.41
16030;BME280;34770;49.272;11.070;2022-11-11T11:07:02;99403.53;;;15.16;79.62
16030;BME280;34770;49.272;11.070;2022-11-11T11:09:39;99303.53;;;14.62;75.89
16030;BME280;34770;49.272;11.070;2022-11-11T11:14:38;99305.25;;;14.88;74.98
16030;BME280;34770;49.272;11.070;2022-11-11T11:17:16;99398.91;;;15.45;74.29
16030;BME280;34770;49.272;11.070;2022-11-11T11:19:42;99318.84;;;15.11;74.11
16030;BME280;34770;49.272;11.070;2022-11-11T11:22:08;99397.09;;;15.04;76.08
16030;BME280;34770;49.272;11.070;2022-11-11T11:24:35;99334.91;;;13.41;81.23
16030;BME280;34770;49.272;11.070;2022-11-11T11:27:06;99406.28;;;14.07;81.24
16030;BME280;34770;49.272;11.070;2022-11-11T11:29:37;99395.25;;;13.81;82.84
16030;BME280;34770;49.272;11.070;2022-11-11T11:32:20;99317.53;;;13.86;79.65
16030;BME280;34770;49.272;11.070;2022-11-11T11:34:53;99297.06;;;13.44;80.97
16030;BME280;34770;49.272;11.070;2022-11-11T11:37:22;99368.53;;;14.13;81.06
16030;BME280;34770;49.272;11.070;2022-11-11T11:39:58;99329.72;;;13.82;80.91
16030;BME280;34770;49.272;11.070;2022-11-11T11:42:31;99384.44;;;14.00;81.22
16030;BME280;34770;49.272;11.070;2022-11-11T11:44:58;99268.53;;;13.20;83.46
16030;BME280;34770;49.272;11.070;2022-11-11T11:48:01;99344.41;;;14.42;79.91
16030;BME280;34770;49.272;11.070;2022-11-11T11:50:40;99365.00;;;15.13;77.57
16030;BME280;34770;49.272;11.070;2022-11-11T11:55:44;99296.34;;;15.98;70.71
16030;BME280;34770;49.272;11.070;2022-11-11T11:58:23;99365.59;;;15.31;74.04
16030;BME280;34770;49.272;11.070;2022-11-11T12:01:02;99367.94;;;16.04;72.74
16030;BME280;34770;49.272;11.070;2022-11-11T12:04:18;99364.22;;;16.97;70.06
16030;BME280;34770;49.272;11.070;2022-11-11T12:09:05;99350.09;;;17.42;66.08
16030;BME280;34770;49.272;11.070;2022-11-11T12:11:41;99358.59;;;17.77;63.88
16030;BME280;34770;49.272;11.070;2022-11-11T12:34:17;99347.69;;;15.24;72.91
16030;BME280;34770;49.272;11.070;2022-11-11T12:43:33;99283.69;;;14.34;75.86
16030;BME280;34770;49.272;11.070;2022-11-11T12:48:55;99363.94;;;14.72;76.23
16030;BME280;34770;49.272;11.070;2022-11-11T12:54:25;99350.84;;;14.43;77.91
16030;BME280;34770;49.272;11.070;2022-11-11T13:07:41;99370.22;;;14.69;77.85
16030;BME280;34770;49.272;11.070;2022-11-11T13:16:09;99276.06;;;14.22;77.65
16030;BME280;34770;49.272;11.070;2022-11-11T13:18:50;99362.66;;;14.70;78.16
16030;BME280;34770;49.272;11.070;2022-11-11T13:21:43;99371.81;;;14.58;78.57
16030;BME280;34770;49.272;11.070;2022-11-11T13:24:19;99325.25;;;14.11;79.02
16030;BME280;34770;49.272;11.070;2022-11-11T13:27:00;99361.22;;;14.42;79.97
16030;BME280;34770;49.272;11.070;2022-11-11T13:29:54;99366.56;;;14.35;80.75
16030;BME280;34770;49.272;11.070;2022-11-11T13:32:31;99272.13;;;13.81;79.24
16030;BME280;34770;49.272;11.070;2022-11-11T13:34:59;99273.00;;;13.94;79.02
16030;BME280;34770;49.272;11.070;2022-11-11T13:37:30;99292.53;;;14.24;78.23
16030;BME280;34770;49.272;11.070;2022-11-11T13:40:06;99274.56;;;14.25;75.89
16030;BME280;34770;49.272;11.070;2022-11-11T13:42:38;99286.69;;;14.50;75.82
16030;BME280;34770;49.272;11.070;2022-11-11T13:45:31;99325.00;;;14.92;76.36
16030;BME280;34770;49.272;11.070;2022-11-11T13:47:59;99331.03;;;14.81;74.79
16030;BME280;34770;49.272;11.070;2022-11-11T13:50:32;99268.44;;;14.44;75.99
16030;BME280;34770;49.272;11.070;2022-11-11T13:53:05;99275.22;;;14.43;76.91
16030;BME280;34770;49.272;11.070;2022-11-11T13:55:43;99334.66;;;14.82;77.54
16030;BME280;34770;49.272;11.070;2022-11-11T13:58:34;99309.06;;;14.71;78.09
16030;BME280;34770;49.272;11.070;2022-11-11T14:01:04;99367.78;;;15.01;77.90
16030;BME280;34770;49.272;11.070;2022-11-11T14:13:56;99364.69;;;15.52;77.23
16030;BME280;34770;49.272;11.070;2022-11-11T14:19:30;99313.03;;;14.70;78.44
16030;BME280;34770;49.272;11.070;2022-11-11T14:21:58;99383.56;;;14.72;79.18
16030;BME280;34770;49.272;11.070;2022-11-11T14:27:02;99346.81;;;14.31;83.78
16030;BME280;34770;49.272;11.070;2022-11-11T14:29:32;99349.91;;;14.17;83.36
16030;BME280;34770;49.272;11.070;2022-11-11T14:35:05;99374.34;;;13.87;85.12
16030;BME280;34770;49.272;11.070;2022-11-11T14:40:39;99375.63;;;13.12;92.27
16030;BME280;34770;49.272;11.070;2022-11-11T14:43:37;99372.75;;;12.82;93.78
16030;BME280;34770;49.272;11.070;2022-11-11T14:46:06;99353.41;;;12.42;96.08
16030;BME280;34770;49.272;11.070;2022-11-11T14:48:48;99389.38;;;12.26;100.00
16030;BME280;34770;49.272;11.070;2022-11-11T14:51:34;99380.69;;;12.10;100.00
16030;BME280;34770;49.272;11.070;2022-11-11T14:54:04;99304.53;;;11.43;100.00
16030;BME280;34770;49.272;11.070;2022-11-11T14:56:32;99354.41;;;11.44;100.00
16030;BME280;34770;49.272;11.070;2022-11-11T14:59:05;99272.50;;;10.74;100.00
16030;BME280;34770;49.272;11.070;2022-11-11T15:01:32;99275.25;;;10.65;100.00
16030;BME280;34770;49.272;11.070;2022-11-11T15:04:02;99305.03;;;10.64;100.00
16030;BME280;34770;49.272;11.070;2022-11-11T15:06:33;99372.06;;;10.99;100.00
16030;BME280;34770;49.272;11.070;2022-11-11T15:12:07;99306.94;;;10.32;100.00
16030;BME280;34770;49.272;11.070;2022-11-11T15:14:50;99363.03;;;10.62;100.00
16030;BME280;34770;49.272;11.070;2022-11-11T15:17:37;99267.59;;;9.80;100.00